Pine Grove, California
Current Conditions -  °F | °C
As of 9:55 PM on Thursday 30 Oct 2014 (Local Time) from KPVF Reporting Station
Broken Clouds Broken Clouds  
Wind Chill: 59°   Ceiling: 6000
Heat Index: 59°   Visibility: 10mi
Dew Point: 37°   Wind: 6mph
Humidity: 45%   Direction: 100°E
Pressure: 29.94"   Gusts: NA
Location:  38.41°N, 120.66°W
Report Text: KPVF 310455Z AUTO 10005KT 10SM FEW043 BKN060 15/03 A2994 RMK AO1
Loading
Personal Weather Stations






























Interactive Weather Map
Tropical Storm Tracking
New forecast layout! Learn more

10-Day Weather Forecast

Advertisements
Track Severe Weather on mobile